sensor_id;sensor_type;location;lat;lon;timestamp;temperature;humidity
32749;DHT22;19119;52.474;13.710;2022-09-02T00:01:02;12.60;99.90
32749;DHT22;19119;52.474;13.710;2022-09-02T00:03:33;12.70;99.90
32749;DHT22;19119;52.474;13.710;2022-09-02T00:06:00;12.70;99.90
32749;DHT22;19119;52.474;13.710;2022-09-02T00:08:26;12.70;99.90
32749;DHT22;19119;52.474;13.710;2022-09-02T00:10:52;12.70;99.90
32749;DHT22;19119;52.474;13.710;2022-09-02T00:13:19;12.70;99.90
32749;DHT22;19119;52.474;13.710;2022-09-02T00:15:46;12.80;99.90
32749;DHT22;19119;52.474;13.710;2022-09-02T00:18:13;12.80;99.90
32749;DHT22;19119;52.474;13.710;2022-09-02T00:20:42;12.90;99.90
32749;DHT22;19119;52.474;13.710;2022-09-02T00:23:08;12.90;99.90
32749;DHT22;19119;52.474;13.710;2022-09-02T00:25:36;13.00;99.90
32749;DHT22;19119;52.474;13.710;2022-09-02T00:28:02;13.00;99.90
32749;DHT22;19119;52.474;13.710;2022-09-02T00:30:27;13.00;99.90
32749;DHT22;19119;52.474;13.710;2022-09-02T00:32:53;13.00;99.90
32749;DHT22;19119;52.474;13.710;2022-09-02T00:35:19;13.10;99.90
32749;DHT22;19119;52.474;13.710;2022-09-02T00:37:45;13.10;99.90
32749;DHT22;19119;52.474;13.710;2022-09-02T00:40:12;13.10;99.90
32749;DHT22;19119;52.474;13.710;2022-09-02T00:42:38;13.10;99.90
32749;DHT22;19119;52.474;13.710;2022-09-02T00:45:06;13.10;99.90
32749;DHT22;19119;52.474;13.710;2022-09-02T00:47:32;13.10;99.90
32749;DHT22;19119;52.474;13.710;2022-09-02T00:49:58;13.10;99.90
32749;DHT22;19119;52.474;13.710;2022-09-02T00:52:42;13.10;99.90
32749;DHT22;19119;52.474;13.710;2022-09-02T00:55:16;13.20;99.90
32749;DHT22;19119;52.474;13.710;2022-09-02T00:57:46;13.10;99.90
32749;DHT22;19119;52.474;13.710;2022-09-02T01:00:17;13.20;99.90
32749;DHT22;19119;52.474;13.710;2022-09-02T01:02:47;13.20;99.90
32749;DHT22;19119;52.474;13.710;2022-09-02T01:05:15;13.30;99.90
32749;DHT22;19119;52.474;13.710;2022-09-02T01:07:42;13.30;99.90
32749;DHT22;19119;52.474;13.710;2022-09-02T01:10:15;13.30;99.90
32749;DHT22;19119;52.474;13.710;2022-09-02T01:12:41;13.20;99.90
32749;DHT22;19119;52.474;13.710;2022-09-02T01:15:09;13.20;99.90
32749;DHT22;19119;52.474;13.710;2022-09-02T01:17:41;13.20;99.90
32749;DHT22;19119;52.474;13.710;2022-09-02T01:20:11;13.30;99.90
32749;DHT22;19119;52.474;13.710;2022-09-02T01:22:38;13.30;99.90
32749;DHT22;19119;52.474;13.710;2022-09-02T01:25:08;13.30;99.90
32749;DHT22;19119;52.474;13.710;2022-09-02T01:27:35;13.30;99.90
32749;DHT22;19119;52.474;13.710;2022-09-02T01:30:02;13.30;99.90
32749;DHT22;19119;52.474;13.710;2022-09-02T01:32:29;13.30;99.90
32749;DHT22;19119;52.474;13.710;2022-09-02T01:34:54;13.30;99.90
32749;DHT22;19119;52.474;13.710;2022-09-02T01:37:21;13.30;99.90
32749;DHT22;19119;52.474;13.710;2022-09-02T01:39:47;13.20;99.90
32749;DHT22;19119;52.474;13.710;2022-09-02T01:42:13;13.30;99.90
32749;DHT22;19119;52.474;13.710;2022-09-02T01:44:39;13.30;99.90
32749;DHT22;19119;52.474;13.710;2022-09-02T01:47:21;13.30;99.90
32749;DHT22;19119;52.474;13.710;2022-09-02T01:49:48;13.30;99.90
32749;DHT22;19119;52.474;13.710;2022-09-02T01:52:15;13.30;99.90
32749;DHT22;19119;52.474;13.710;2022-09-02T01:54:41;13.30;99.90
32749;DHT22;19119;52.474;13.710;2022-09-02T01:57:07;13.30;99.90
32749;DHT22;19119;52.474;13.710;2022-09-02T01:59:33;13.30;99.90
32749;DHT22;19119;52.474;13.710;2022-09-02T02:01:58;13.30;99.90
32749;DHT22;19119;52.474;13.710;2022-09-02T02:04:24;13.30;99.90
32749;DHT22;19119;52.474;13.710;2022-09-02T02:06:50;13.30;99.90
32749;DHT22;19119;52.474;13.710;2022-09-02T02:09:17;13.30;99.90
32749;DHT22;19119;52.474;13.710;2022-09-02T02:11:44;13.30;99.90
32749;DHT22;19119;52.474;13.710;2022-09-02T02:14:10;13.30;99.90
32749;DHT22;19119;52.474;13.710;2022-09-02T02:16:35;13.30;99.90
32749;DHT22;19119;52.474;13.710;2022-09-02T02:19:02;13.30;99.90
32749;DHT22;19119;52.474;13.710;2022-09-02T02:21:28;13.30;99.90
32749;DHT22;19119;52.474;13.710;2022-09-02T02:23:53;13.20;99.90
32749;DHT22;19119;52.474;13.710;2022-09-02T02:26:19;13.30;99.90
32749;DHT22;19119;52.474;13.710;2022-09-02T02:28:45;13.30;99.90
32749;DHT22;19119;52.474;13.710;2022-09-02T02:31:10;13.30;99.90
32749;DHT22;19119;52.474;13.710;2022-09-02T02:33:36;13.30;99.90
32749;DHT22;19119;52.474;13.710;2022-09-02T02:36:04;13.30;99.90
32749;DHT22;19119;52.474;13.710;2022-09-02T02:38:32;13.30;99.90
32749;DHT22;19119;52.474;13.710;2022-09-02T02:40:57;13.30;99.90
32749;DHT22;19119;52.474;13.710;2022-09-02T02:43:24;13.30;99.90
32749;DHT22;19119;52.474;13.710;2022-09-02T02:45:50;13.30;99.90
32749;DHT22;19119;52.474;13.710;2022-09-02T02:48:16;13.20;99.90
32749;DHT22;19119;52.474;13.710;2022-09-02T02:50:42;13.30;99.90
32749;DHT22;19119;52.474;13.710;2022-09-02T02:53:07;13.20;99.90
32749;DHT22;19119;52.474;13.710;2022-09-02T02:55:33;13.20;99.90
32749;DHT22;19119;52.474;13.710;2022-09-02T02:57:59;13.10;99.90
32749;DHT22;19119;52.474;13.710;2022-09-02T03:00:28;13.00;99.90
32749;DHT22;19119;52.474;13.710;2022-09-02T03:02:56;13.00;99.90
32749;DHT22;19119;52.474;13.710;2022-09-02T03:05:23;13.00;99.90
32749;DHT22;19119;52.474;13.710;2022-09-02T03:07:48;12.90;99.90
32749;DHT22;19119;52.474;13.710;2022-09-02T03:10:14;13.00;99.90
32749;DHT22;19119;52.474;13.710;2022-09-02T03:12:40;12.90;99.90
32749;DHT22;19119;52.474;13.710;2022-09-02T03:15:07;12.90;99.90
32749;DHT22;19119;52.474;13.710;2022-09-02T03:17:34;12.90;99.90
32749;DHT22;19119;52.474;13.710;2022-09-02T03:19:59;12.80;99.90
32749;DHT22;19119;52.474;13.710;2022-09-02T03:22:26;12.70;99.90
32749;DHT22;19119;52.474;13.710;2022-09-02T03:24:52;12.70;99.90
32749;DHT22;19119;52.474;13.710;2022-09-02T03:27:18;12.60;99.90
32749;DHT22;19119;52.474;13.710;2022-09-02T03:29:44;12.60;99.90
32749;DHT22;19119;52.474;13.710;2022-09-02T03:32:09;12.50;99.90
32749;DHT22;19119;52.474;13.710;2022-09-02T03:34:35;12.40;99.90
32749;DHT22;19119;52.474;13.710;2022-09-02T03:37:01;12.50;99.90
32749;DHT22;19119;52.474;13.710;2022-09-02T03:39:26;12.50;99.90
32749;DHT22;19119;52.474;13.710;2022-09-02T03:41:52;12.30;99.90
32749;DHT22;19119;52.474;13.710;2022-09-02T03:44:18;12.30;99.90
32749;DHT22;19119;52.474;13.710;2022-09-02T03:46:44;12.30;99.90
32749;DHT22;19119;52.474;13.710;2022-09-02T03:49:09;12.20;99.90
32749;DHT22;19119;52.474;13.710;2022-09-02T03:51:39;12.20;99.90
32749;DHT22;19119;52.474;13.710;2022-09-02T03:54:05;12.20;99.90
32749;DHT22;19119;52.474;13.710;2022-09-02T03:56:32;12.10;99.90
32749;DHT22;19119;52.474;13.710;2022-09-02T03:58:58;12.20;99.90
32749;DHT22;19119;52.474;13.710;2022-09-02T04:01:24;12.20;99.90
32749;DHT22;19119;52.474;13.710;2022-09-02T04:03:50;12.30;99.90
32749;DHT22;19119;52.474;13.710;2022-09-02T04:06:17;12.30;99.90
32749;DHT22;19119;52.474;13.710;2022-09-02T04:08:44;12.30;99.90
32749;DHT22;19119;52.474;13.710;2022-09-02T04:11:16;12.30;99.90
32749;DHT22;19119;52.474;13.710;2022-09-02T04:13:43;12.30;99.90
32749;DHT22;19119;52.474;13.710;2022-09-02T04:16:12;12.30;99.90
32749;DHT22;19119;52.474;13.710;2022-09-02T04:18:38;12.30;99.90
32749;DHT22;19119;52.474;13.710;2022-09-02T04:21:04;12.40;99.90
32749;DHT22;19119;52.474;13.710;2022-09-02T04:23:31;12.40;99.90
32749;DHT22;19119;52.474;13.710;2022-09-02T04:25:57;12.40;99.90
32749;DHT22;19119;52.474;13.710;2022-09-02T04:28:22;12.40;99.90
32749;DHT22;19119;52.474;13.710;2022-09-02T04:30:49;12.40;99.90
32749;DHT22;19119;52.474;13.710;2022-09-02T04:33:15;12.50;99.90
32749;DHT22;19119;52.474;13.710;2022-09-02T04:35:43;12.50;99.90
32749;DHT22;19119;52.474;13.710;2022-09-02T04:38:09;12.40;99.90
32749;DHT22;19119;52.474;13.710;2022-09-02T04:40:39;12.50;99.90
32749;DHT22;19119;52.474;13.710;2022-09-02T04:43:05;12.50;99.90
32749;DHT22;19119;52.474;13.710;2022-09-02T04:45:30;12.50;99.90
32749;DHT22;19119;52.474;13.710;2022-09-02T04:47:56;12.50;99.90
32749;DHT22;19119;52.474;13.710;2022-09-02T04:50:21;12.50;99.90
32749;DHT22;19119;52.474;13.710;2022-09-02T04:52:47;12.50;99.90
32749;DHT22;19119;52.474;13.710;2022-09-02T04:55:12;12.60;99.90
32749;DHT22;19119;52.474;13.710;2022-09-02T04:57:38;12.60;99.90
32749;DHT22;19119;52.474;13.710;2022-09-02T05:00:06;12.70;99.90
32749;DHT22;19119;52.474;13.710;2022-09-02T05:02:32;12.70;99.90
32749;DHT22;19119;52.474;13.710;2022-09-02T05:04:58;12.80;99.90
32749;DHT22;19119;52.474;13.710;2022-09-02T05:07:23;12.80;99.90
32749;DHT22;19119;52.474;13.710;2022-09-02T05:09:49;12.80;99.90
32749;DHT22;19119;52.474;13.710;2022-09-02T05:12:15;12.90;99.90
32749;DHT22;19119;52.474;13.710;2022-09-02T05:14:42;12.90;99.90
32749;DHT22;19119;52.474;13.710;2022-09-02T05:17:08;13.00;99.90
32749;DHT22;19119;52.474;13.710;2022-09-02T05:19:34;13.00;99.90
32749;DHT22;19119;52.474;13.710;2022-09-02T05:21:59;13.10;99.90
32749;DHT22;19119;52.474;13.710;2022-09-02T05:24:26;13.10;99.90
32749;DHT22;19119;52.474;13.710;2022-09-02T05:26:53;13.20;99.90
32749;DHT22;19119;52.474;13.710;2022-09-02T05:29:18;13.30;99.90
32749;DHT22;19119;52.474;13.710;2022-09-02T05:31:46;13.30;99.90
32749;DHT22;19119;52.474;13.710;2022-09-02T05:34:13;13.30;99.90
32749;DHT22;19119;52.474;13.710;2022-09-02T05:36:39;13.40;99.90
32749;DHT22;19119;52.474;13.710;2022-09-02T05:39:04;13.40;99.90
32749;DHT22;19119;52.474;13.710;2022-09-02T05:41:31;13.40;99.90
32749;DHT22;19119;52.474;13.710;2022-09-02T05:43:59;13.40;99.90
32749;DHT22;19119;52.474;13.710;2022-09-02T05:46:25;13.40;99.90
32749;DHT22;19119;52.474;13.710;2022-09-02T05:48:52;13.50;99.90
32749;DHT22;19119;52.474;13.710;2022-09-02T05:51:31;13.60;99.90
32749;DHT22;19119;52.474;13.710;2022-09-02T05:53:59;13.60;99.90
32749;DHT22;19119;52.474;13.710;2022-09-02T05:56:25;13.70;99.90
32749;DHT22;19119;52.474;13.710;2022-09-02T05:58:53;13.70;99.90
32749;DHT22;19119;52.474;13.710;2022-09-02T06:01:19;13.80;99.90
32749;DHT22;19119;52.474;13.710;2022-09-02T06:03:45;13.90;99.90
32749;DHT22;19119;52.474;13.710;2022-09-02T06:06:11;13.90;99.90
32749;DHT22;19119;52.474;13.710;2022-09-02T06:08:38;14.00;99.90
32749;DHT22;19119;52.474;13.710;2022-09-02T06:11:07;14.10;99.90
32749;DHT22;19119;52.474;13.710;2022-09-02T06:13:35;14.10;99.90
32749;DHT22;19119;52.474;13.710;2022-09-02T06:16:01;14.10;99.90
32749;DHT22;19119;52.474;13.710;2022-09-02T06:18:27;14.20;99.90
32749;DHT22;19119;52.474;13.710;2022-09-02T06:20:53;14.20;99.90
32749;DHT22;19119;52.474;13.710;2022-09-02T06:23:19;14.30;99.90
32749;DHT22;19119;52.474;13.710;2022-09-02T06:25:46;14.20;99.90
32749;DHT22;19119;52.474;13.710;2022-09-02T06:28:12;14.20;99.90
32749;DHT22;19119;52.474;13.710;2022-09-02T06:30:40;14.30;99.90
32749;DHT22;19119;52.474;13.710;2022-09-02T06:33:05;14.50;99.90
32749;DHT22;19119;52.474;13.710;2022-09-02T06:35:36;14.80;99.90
32749;DHT22;19119;52.474;13.710;2022-09-02T06:38:02;14.90;99.90
32749;DHT22;19119;52.474;13.710;2022-09-02T06:40:28;15.00;99.90
32749;DHT22;19119;52.474;13.710;2022-09-02T06:42:54;15.30;99.90
32749;DHT22;19119;52.474;13.710;2022-09-02T06:45:20;15.50;99.90
32749;DHT22;19119;52.474;13.710;2022-09-02T06:47:48;15.80;99.90
32749;DHT22;19119;52.474;13.710;2022-09-02T06:50:14;16.00;99.90
32749;DHT22;19119;52.474;13.710;2022-09-02T06:52:40;16.00;99.90
32749;DHT22;19119;52.474;13.710;2022-09-02T06:55:06;16.30;99.90
32749;DHT22;19119;52.474;13.710;2022-09-02T06:57:31;16.50;99.90
32749;DHT22;19119;52.474;13.710;2022-09-02T06:59:57;16.60;99.90
32749;DHT22;19119;52.474;13.710;2022-09-02T07:02:23;16.80;99.90
32749;DHT22;19119;52.474;13.710;2022-09-02T07:04:48;17.20;99.90
32749;DHT22;19119;52.474;13.710;2022-09-02T07:07:37;17.50;99.90
32749;DHT22;19119;52.474;13.710;2022-09-02T07:10:05;17.90;99.90
32749;DHT22;19119;52.474;13.710;2022-09-02T07:12:34;17.90;99.90
32749;DHT22;19119;52.474;13.710;2022-09-02T07:15:00;18.10;99.90
32749;DHT22;19119;52.474;13.710;2022-09-02T07:17:25;18.20;99.90
32749;DHT22;19119;52.474;13.710;2022-09-02T07:19:51;18.30;99.90
32749;DHT22;19119;52.474;13.710;2022-09-02T07:22:20;18.20;99.90
32749;DHT22;19119;52.474;13.710;2022-09-02T07:24:45;18.00;99.90
32749;DHT22;19119;52.474;13.710;2022-09-02T07:27:11;18.00;99.90
32749;DHT22;19119;52.474;13.710;2022-09-02T07:29:37;18.20;99.90
32749;DHT22;19119;52.474;13.710;2022-09-02T07:32:03;18.50;99.90
32749;DHT22;19119;52.474;13.710;2022-09-02T07:34:29;18.60;99.90
32749;DHT22;19119;52.474;13.710;2022-09-02T07:36:54;18.60;99.90
32749;DHT22;19119;52.474;13.710;2022-09-02T07:39:20;18.80;99.90
32749;DHT22;19119;52.474;13.710;2022-09-02T07:41:49;18.90;99.90
32749;DHT22;19119;52.474;13.710;2022-09-02T07:44:16;18.70;99.90
32749;DHT22;19119;52.474;13.710;2022-09-02T07:46:42;18.90;99.90
32749;DHT22;19119;52.474;13.710;2022-09-02T07:49:10;18.90;99.90
32749;DHT22;19119;52.474;13.710;2022-09-02T07:51:38;19.30;99.90
32749;DHT22;19119;52.474;13.710;2022-09-02T07:54:04;19.50;99.90
32749;DHT22;19119;52.474;13.710;2022-09-02T07:56:30;19.70;99.90
32749;DHT22;19119;52.474;13.710;2022-09-02T07:58:56;19.70;99.90
32749;DHT22;19119;52.474;13.710;2022-09-02T08:01:22;19.80;99.90
32749;DHT22;19119;52.474;13.710;2022-09-02T08:03:48;19.80;99.90
32749;DHT22;19119;52.474;13.710;2022-09-02T08:06:14;19.80;99.90
32749;DHT22;19119;52.474;13.710;2022-09-02T08:08:41;19.90;99.90
32749;DHT22;19119;52.474;13.710;2022-09-02T08:11:07;19.70;99.90
32749;DHT22;19119;52.474;13.710;2022-09-02T08:13:34;19.90;99.90
32749;DHT22;19119;52.474;13.710;2022-09-02T08:16:00;20.20;99.90
32749;DHT22;19119;52.474;13.710;2022-09-02T08:18:27;20.40;99.90
32749;DHT22;19119;52.474;13.710;2022-09-02T08:20:53;20.70;99.90
32749;DHT22;19119;52.474;13.710;2022-09-02T08:23:18;21.00;99.90
32749;DHT22;19119;52.474;13.710;2022-09-02T08:25:44;21.30;99.90
32749;DHT22;19119;52.474;13.710;2022-09-02T08:28:10;21.40;99.90
32749;DHT22;19119;52.474;13.710;2022-09-02T08:30:36;21.50;99.90
32749;DHT22;19119;52.474;13.710;2022-09-02T08:33:02;21.40;99.90
32749;DHT22;19119;52.474;13.710;2022-09-02T08:35:27;21.50;99.90
32749;DHT22;19119;52.474;13.710;2022-09-02T08:37:53;21.70;99.90
32749;DHT22;19119;52.474;13.710;2022-09-02T08:40:21;21.90;99.90
32749;DHT22;19119;52.474;13.710;2022-09-02T08:42:55;22.20;99.90
32749;DHT22;19119;52.474;13.710;2022-09-02T08:47:57;21.50;99.90
32749;DHT22;19119;52.474;13.710;2022-09-02T08:50:27;21.80;99.90
32749;DHT22;19119;52.474;13.710;2022-09-02T08:53:00;22.00;99.90
32749;DHT22;19119;52.474;13.710;2022-09-02T08:55:34;22.20;99.90
32749;DHT22;19119;52.474;13.710;2022-09-02T08:58:01;22.30;99.90
32749;DHT22;19119;52.474;13.710;2022-09-02T09:00:34;22.20;99.90
32749;DHT22;19119;52.474;13.710;2022-09-02T09:03:20;22.30;99.90
32749;DHT22;19119;52.474;13.710;2022-09-02T09:06:05;22.40;99.90
32749;DHT22;19119;52.474;13.710;2022-09-02T09:08:46;21.70;99.90
32749;DHT22;19119;52.474;13.710;2022-09-02T09:11:18;22.10;99.90
32749;DHT22;19119;52.474;13.710;2022-09-02T09:14:01;22.40;99.90
32749;DHT22;19119;52.474;13.710;2022-09-02T09:19:15;23.20;99.90
32749;DHT22;19119;52.474;13.710;2022-09-02T09:21:42;22.50;99.90
32749;DHT22;19119;52.474;13.710;2022-09-02T09:24:21;22.70;99.90
32749;DHT22;19119;52.474;13.710;2022-09-02T09:26:49;22.70;99.90
32749;DHT22;19119;52.474;13.710;2022-09-02T09:29:15;22.30;99.90
32749;DHT22;19119;52.474;13.710;2022-09-02T09:31:40;22.40;99.90
32749;DHT22;19119;52.474;13.710;2022-09-02T09:34:07;23.00;99.90
32749;DHT22;19119;52.474;13.710;2022-09-02T09:41:50;23.20;99.90
32749;DHT22;19119;52.474;13.710;2022-09-02T09:44:27;23.30;99.90
32749;DHT22;19119;52.474;13.710;2022-09-02T09:47:01;23.30;99.90
32749;DHT22;19119;52.474;13.710;2022-09-02T09:49:27;23.30;99.90
32749;DHT22;19119;52.474;13.710;2022-09-02T09:51:53;23.20;99.90
32749;DHT22;19119;52.474;13.710;2022-09-02T09:54:19;22.50;99.90
32749;DHT22;19119;52.474;13.710;2022-09-02T09:56:44;22.20;99.90
32749;DHT22;19119;52.474;13.710;2022-09-02T10:01:53;23.00;99.90
32749;DHT22;19119;52.474;13.710;2022-09-02T10:04:28;22.70;99.90
32749;DHT22;19119;52.474;13.710;2022-09-02T10:06:54;22.80;99.90
32749;DHT22;19119;52.474;13.710;2022-09-02T10:14:19;23.50;99.90
32749;DHT22;19119;52.474;13.710;2022-09-02T10:16:53;23.70;98.40
32749;DHT22;19119;52.474;13.710;2022-09-02T10:19:25;23.70;98.60
32749;DHT22;19119;52.474;13.710;2022-09-02T10:24:36;22.60;99.30
32749;DHT22;19119;52.474;13.710;2022-09-02T10:27:07;22.40;99.60
32749;DHT22;19119;52.474;13.710;2022-09-02T10:39:38;22.30;99.70
32749;DHT22;19119;52.474;13.710;2022-09-02T10:42:14;22.10;99.00
32749;DHT22;19119;52.474;13.710;2022-09-02T10:55:30;22.00;99.90
32749;DHT22;19119;52.474;13.710;2022-09-02T10:58:11;22.30;99.90
32749;DHT22;19119;52.474;13.710;2022-09-02T11:00:39;22.70;98.50
32749;DHT22;19119;52.474;13.710;2022-09-02T11:13:20;24.20;94.90
32749;DHT22;19119;52.474;13.710;2022-09-02T11:21:05;24.70;94.00
32749;DHT22;19119;52.474;13.710;2022-09-02T11:23:43;24.30;93.70
32749;DHT22;19119;52.474;13.710;2022-09-02T11:26:19;23.90;94.00
32749;DHT22;19119;52.474;13.710;2022-09-02T11:28:47;24.20;93.20
32749;DHT22;19119;52.474;13.710;2022-09-02T11:31:21;24.50;93.90
32749;DHT22;19119;52.474;13.710;2022-09-02T11:33:53;25.30;93.20
32749;DHT22;19119;52.474;13.710;2022-09-02T11:36:20;25.60;93.00
32749;DHT22;19119;52.474;13.710;2022-09-02T11:44:09;26.10;90.60
32749;DHT22;19119;52.474;13.710;2022-09-02T11:49:28;24.90;91.00
32749;DHT22;19119;52.474;13.710;2022-09-02T11:52:02;24.60;90.90
32749;DHT22;19119;52.474;13.710;2022-09-02T11:54:37;25.00;90.90
32749;DHT22;19119;52.474;13.710;2022-09-02T11:57:04;24.60;91.10
32749;DHT22;19119;52.474;13.710;2022-09-02T12:02:29;25.20;91.80
32749;DHT22;19119;52.474;13.710;2022-09-02T12:07:47;26.30;90.30
32749;DHT22;19119;52.474;13.710;2022-09-02T12:10:55;25.60;90.00
32749;DHT22;19119;52.474;13.710;2022-09-02T12:13:31;24.90;90.10
32749;DHT22;19119;52.474;13.710;2022-09-02T12:18:42;24.20;90.40
32749;DHT22;19119;52.474;13.710;2022-09-02T12:21:15;23.90;91.30
32749;DHT22;19119;52.474;13.710;2022-09-02T12:26:28;24.80;91.00
32749;DHT22;19119;52.474;13.710;2022-09-02T12:31:41;26.50;88.40
32749;DHT22;19119;52.474;13.710;2022-09-02T12:36:54;25.20;86.50
32749;DHT22;19119;52.474;13.710;2022-09-02T12:46:56;23.30;90.10
32749;DHT22;19119;52.474;13.710;2022-09-02T12:49:32;23.40;89.50
32749;DHT22;19119;52.474;13.710;2022-09-02T12:53:06;23.30;89.10
32749;DHT22;19119;52.474;13.710;2022-09-02T12:54:55;23.20;89.70
32749;DHT22;19119;52.474;13.710;2022-09-02T12:57:21;22.80;89.70
32749;DHT22;19119;52.474;13.710;2022-09-02T13:00:02;22.80;90.00
32749;DHT22;19119;52.474;13.710;2022-09-02T13:04:59;22.20;90.40
32749;DHT22;19119;52.474;13.710;2022-09-02T13:20:45;23.70;88.50
32749;DHT22;19119;52.474;13.710;2022-09-02T13:23:34;23.40;90.10
32749;DHT22;19119;52.474;13.710;2022-09-02T13:33:39;22.20;90.10
32749;DHT22;19119;52.474;13.710;2022-09-02T13:36:05;22.10;90.20
32749;DHT22;19119;52.474;13.710;2022-09-02T13:38:31;22.40;90.90
32749;DHT22;19119;52.474;13.710;2022-09-02T13:40:57;22.30;90.20
32749;DHT22;19119;52.474;13.710;2022-09-02T13:43:24;22.30;90.10
32749;DHT22;19119;52.474;13.710;2022-09-02T13:45:51;22.40;91.10
32749;DHT22;19119;52.474;13.710;2022-09-02T13:48:18;22.30;90.50
32749;DHT22;19119;52.474;13.710;2022-09-02T13:50:48;22.50;90.50
32749;DHT22;19119;52.474;13.710;2022-09-02T13:53:35;22.50;90.40
32749;DHT22;19119;52.474;13.710;2022-09-02T13:55:59;22.50;90.20
32749;DHT22;19119;52.474;13.710;2022-09-02T14:01:15;22.40;88.60
32749;DHT22;19119;52.474;13.710;2022-09-02T14:03:44;22.60;90.40
32749;DHT22;19119;52.474;13.710;2022-09-02T14:06:09;23.20;89.10
32749;DHT22;19119;52.474;13.710;2022-09-02T14:08:35;23.30;88.90
32749;DHT22;19119;52.474;13.710;2022-09-02T14:11:01;23.30;86.40
32749;DHT22;19119;52.474;13.710;2022-09-02T14:13:27;23.60;89.70
32749;DHT22;19119;52.474;13.710;2022-09-02T14:15:52;23.80;88.50
32749;DHT22;19119;52.474;13.710;2022-09-02T14:18:21;23.70;86.30
32749;DHT22;19119;52.474;13.710;2022-09-02T14:23:18;24.10;84.30
32749;DHT22;19119;52.474;13.710;2022-09-02T14:25:52;23.80;86.00
32749;DHT22;19119;52.474;13.710;2022-09-02T14:28:19;24.00;84.30
32749;DHT22;19119;52.474;13.710;2022-09-02T14:31:04;23.70;85.20
32749;DHT22;19119;52.474;13.710;2022-09-02T14:33:37;23.50;84.20
32749;DHT22;19119;52.474;13.710;2022-09-02T14:36:05;23.30;85.40
32749;DHT22;19119;52.474;13.710;2022-09-02T14:38:35;23.00;85.80
32749;DHT22;19119;52.474;13.710;2022-09-02T14:41:03;22.90;85.70
32749;DHT22;19119;52.474;13.710;2022-09-02T14:43:29;22.60;86.10
32749;DHT22;19119;52.474;13.710;2022-09-02T14:46:03;22.60;87.00
32749;DHT22;19119;52.474;13.710;2022-09-02T14:48:28;22.50;86.70
32749;DHT22;19119;52.474;13.710;2022-09-02T14:50:58;22.50;86.70
32749;DHT22;19119;52.474;13.710;2022-09-02T14:53:25;22.30;87.80
32749;DHT22;19119;52.474;13.710;2022-09-02T14:55:53;22.10;88.10
32749;DHT22;19119;52.474;13.710;2022-09-02T14:58:20;21.90;88.30
32749;DHT22;19119;52.474;13.710;2022-09-02T15:00:47;21.90;89.40
32749;DHT22;19119;52.474;13.710;2022-09-02T15:03:15;21.80;90.30
32749;DHT22;19119;52.474;13.710;2022-09-02T15:05:41;21.50;89.40
32749;DHT22;19119;52.474;13.710;2022-09-02T15:08:07;21.70;89.10
32749;DHT22;19119;52.474;13.710;2022-09-02T15:10:33;21.70;90.10
32749;DHT22;19119;52.474;13.710;2022-09-02T15:12:59;21.70;90.50
32749;DHT22;19119;52.474;13.710;2022-09-02T15:15:25;21.70;89.20
32749;DHT22;19119;52.474;13.710;2022-09-02T15:17:52;21.60;90.70
32749;DHT22;19119;52.474;13.710;2022-09-02T15:20:17;21.60;90.60
32749;DHT22;19119;52.474;13.710;2022-09-02T15:22:43;21.50;90.40
32749;DHT22;19119;52.474;13.710;2022-09-02T15:25:09;21.70;90.90
32749;DHT22;19119;52.474;13.710;2022-09-02T15:27:35;21.80;89.30
32749;DHT22;19119;52.474;13.710;2022-09-02T15:30:01;22.10;90.20
32749;DHT22;19119;52.474;13.710;2022-09-02T15:32:26;22.10;87.20
32749;DHT22;19119;52.474;13.710;2022-09-02T15:34:52;22.10;87.90
32749;DHT22;19119;52.474;13.710;2022-09-02T15:37:18;22.40;88.30
32749;DHT22;19119;52.474;13.710;2022-09-02T15:39:43;22.40;86.90
32749;DHT22;19119;52.474;13.710;2022-09-02T15:42:08;22.40;86.70
32749;DHT22;19119;52.474;13.710;2022-09-02T15:44:34;22.40;88.00
32749;DHT22;19119;52.474;13.710;2022-09-02T15:46:59;22.40;87.60
32749;DHT22;19119;52.474;13.710;2022-09-02T15:49:25;22.20;86.00
32749;DHT22;19119;52.474;13.710;2022-09-02T15:51:51;22.40;88.10
32749;DHT22;19119;52.474;13.710;2022-09-02T15:54:18;22.30;86.60
32749;DHT22;19119;52.474;13.710;2022-09-02T15:56:44;22.20;85.70
32749;DHT22;19119;52.474;13.710;2022-09-02T15:59:10;22.20;87.00
32749;DHT22;19119;52.474;13.710;2022-09-02T16:01:38;21.90;86.30
32749;DHT22;19119;52.474;13.710;2022-09-02T16:04:05;21.80;86.70
32749;DHT22;19119;52.474;13.710;2022-09-02T16:06:31;21.80;86.60
32749;DHT22;19119;52.474;13.710;2022-09-02T16:08:57;21.70;87.40
32749;DHT22;19119;52.474;13.710;2022-09-02T16:11:23;21.60;87.30
32749;DHT22;19119;52.474;13.710;2022-09-02T16:13:49;21.60;87.90
32749;DHT22;19119;52.474;13.710;2022-09-02T16:16:15;21.50;87.20
32749;DHT22;19119;52.474;13.710;2022-09-02T16:18:41;21.50;88.50
32749;DHT22;19119;52.474;13.710;2022-09-02T16:21:07;21.40;87.90
32749;DHT22;19119;52.474;13.710;2022-09-02T16:23:33;21.30;88.30
32749;DHT22;19119;52.474;13.710;2022-09-02T16:26:09;21.30;88.80
32749;DHT22;19119;52.474;13.710;2022-09-02T16:28:35;21.10;88.80
32749;DHT22;19119;52.474;13.710;2022-09-02T16:31:01;21.10;88.30
32749;DHT22;19119;52.474;13.710;2022-09-02T16:33:27;21.00;89.30
32749;DHT22;19119;52.474;13.710;2022-09-02T16:35:52;20.90;89.80
32749;DHT22;19119;52.474;13.710;2022-09-02T16:38:18;21.00;90.10
32749;DHT22;19119;52.474;13.710;2022-09-02T16:40:50;20.80;90.50
32749;DHT22;19119;52.474;13.710;2022-09-02T16:43:16;20.90;90.70
32749;DHT22;19119;52.474;13.710;2022-09-02T16:45:41;20.70;90.30
32749;DHT22;19119;52.474;13.710;2022-09-02T16:48:07;20.60;90.30
32749;DHT22;19119;52.474;13.710;2022-09-02T16:50:32;20.50;90.20
32749;DHT22;19119;52.474;13.710;2022-09-02T16:52:58;20.40;90.60
32749;DHT22;19119;52.474;13.710;2022-09-02T16:55:23;20.30;90.90
32749;DHT22;19119;52.474;13.710;2022-09-02T16:57:49;20.30;90.80
32749;DHT22;19119;52.474;13.710;2022-09-02T17:00:14;20.30;90.70
32749;DHT22;19119;52.474;13.710;2022-09-02T17:02:40;20.30;91.00
32749;DHT22;19119;52.474;13.710;2022-09-02T17:05:06;20.20;90.70
32749;DHT22;19119;52.474;13.710;2022-09-02T17:07:32;20.10;91.10
32749;DHT22;19119;52.474;13.710;2022-09-02T17:09:57;20.10;91.30
32749;DHT22;19119;52.474;13.710;2022-09-02T17:12:23;20.00;90.90
32749;DHT22;19119;52.474;13.710;2022-09-02T17:14:48;20.00;91.20
32749;DHT22;19119;52.474;13.710;2022-09-02T17:17:14;19.90;91.10